Time;durP1;ratioP1;P1;durP2;ratioP2;P2;SDS_P1;SDS_P2;PMS_P1;PMS_P2;Temp;Humidity;BMP_temperature;BMP_pressure;BME280_temperature;BME280_humidity;BME280_pressure;Samples;Min_cycle;Max_cycle;Signal;HPM_P1;HPM_P2
2022/12/01 00:00:41;;;;;;;21.77;15.05;;;;;;;1.60;81.42;102006.77;3374730;82;22098;-73
2022/12/01 00:05:32;;;;;;;20.05;14.60;;;;;;;1.59;81.45;102001.12;3392028;81;21013;-72
2022/12/01 00:10:25;;;;;;;19.87;14.28;;;;;;;1.58;81.48;101999.36;3414045;82;20986;-73
2022/12/01 00:15:16;;;;;;;23.02;14.28;;;;;;;1.56;81.51;102001.80;3354709;82;22211;-73
2022/12/01 00:20:54;;;;;;;19.85;14.65;;;;;;;1.53;81.55;101999.89;3380833;82;21269;-72
2022/12/01 00:25:32;;;;;;;20.02;15.08;;;;;;;1.54;81.68;101999.52;3327508;84;20912;-74
2022/12/01 00:30:24;;;;;;;23.25;16.32;;;;;;;1.52;81.74;102003.25;3304490;86;22145;-74
2022/12/01 00:35:16;;;;;;;22.07;16.23;;;;;;;1.52;81.79;102004.53;3331861;84;20984;-74
2022/12/01 00:40:09;;;;;;;20.48;15.15;;;;;;;1.52;81.88;102000.69;3327150;84;21044;-74
2022/12/01 00:45:01;;;;;;;20.10;14.45;;;;;;;1.52;81.84;101998.12;3277146;86;21519;-73
2022/12/01 00:49:52;;;;;;;20.82;15.68;;;;;;;1.51;81.87;101992.48;3303133;86;21057;-74
2022/12/01 00:54:43;;;;;;;21.50;15.85;;;;;;;1.50;81.98;101994.56;3287491;84;21570;-72
2022/12/01 00:59:34;;;;;;;23.50;16.77;;;;;;;1.51;82.06;101992.48;3317404;82;20979;-72
2022/12/01 01:04:33;;;;;;;21.27;15.48;;;;;;;1.52;82.00;101986.59;3328975;83;21567;-72
2022/12/01 01:09:29;;;;;;;21.55;15.78;;;;;;;1.53;82.08;101985.79;3376902;83;20974;-72
2022/12/01 01:14:18;;;;;;;21.97;15.95;;;;;;;1.53;82.10;101981.95;3309110;83;21476;-72
2022/12/01 01:19:09;;;;;;;21.07;15.83;;;;;;;1.53;82.11;101979.78;3358312;83;20983;-72
2022/12/01 01:24:01;;;;;;;21.75;16.40;;;;;;;1.51;82.07;101974.94;3318676;83;21454;-72
2022/12/01 01:28:55;;;;;;;22.45;16.23;;;;;;;1.47;82.12;101976.38;3298639;83;21015;-71
2022/12/01 01:33:47;;;;;;;19.17;13.93;;;;;;;1.45;82.23;101972.82;3347050;83;21622;-72
2022/12/01 01:38:38;;;;;;;23.38;14.78;;;;;;;1.44;82.32;101974.86;3295453;83;20960;-72
2022/12/01 01:43:50;;;;;;;19.82;14.87;;;;;;;1.44;82.37;101982.55;3377885;83;21300;-72
2022/12/01 01:48:46;;;;;;;19.00;14.05;;;;;;;1.45;82.39;101977.03;3363911;83;21018;-72
2022/12/01 01:53:38;;;;;;;21.62;15.23;;;;;;;1.43;82.43;101976.95;3346330;83;21027;-72
2022/12/01 01:58:31;;;;;;;21.20;14.87;;;;;;;1.43;82.49;101971.82;3326706;83;21611;-71
2022/12/01 02:03:23;;;;;;;20.57;15.63;;;;;;;1.43;82.49;101974.38;3348169;83;20983;-71
2022/12/01 02:08:15;;;;;;;23.20;16.40;;;;;;;1.40;82.49;101975.43;3326961;83;22393;-72
2022/12/01 02:13:30;;;;;;;18.23;14.18;;;;;;;1.40;82.54;101971.58;3369332;83;21003;-72
2022/12/01 02:18:39;;;;;;;21.85;16.60;;;;;;;1.41;82.57;101976.31;3351526;83;21568;-72
2022/12/01 02:23:41;;;;;;;21.40;15.48;;;;;;;1.39;82.60;101973.63;3312576;83;21070;-73
2022/12/01 02:29:26;;;;;;;20.25;15.80;;;;;;;1.37;82.71;101972.63;3351241;83;21004;-72
2022/12/01 02:34:56;;;;;;;21.75;15.72;;;;;;;1.40;82.89;101974.14;3407247;82;21563;-72
2022/12/01 02:40:15;;;;;;;24.27;17.32;;;;;;;1.39;82.80;101976.19;3407869;82;21001;-72
2022/12/01 02:45:11;;;;;;;24.32;16.95;;;;;;;1.39;82.87;101964.66;3406329;82;21033;-71
2022/12/01 02:50:04;;;;;;;22.40;15.30;;;;;;;1.36;82.80;101970.86;3371917;82;21047;-72
2022/12/01 02:54:56;;;;;;;21.85;15.75;;;;;;;1.36;82.88;101964.45;3381724;82;21099;-73
2022/12/01 02:59:52;;;;;;;23.45;16.10;;;;;;;1.33;82.86;101965.10;3351948;82;21057;-72
2022/12/01 03:05:03;;;;;;;20.68;15.30;;;;;;;1.33;82.88;101963.82;3369581;82;21446;-71
2022/12/01 03:10:12;;;;;;;21.30;15.40;;;;;;;1.32;82.82;101966.27;3408646;82;21417;-72
2022/12/01 03:15:39;;;;;;;21.77;15.32;;;;;;;1.31;82.91;101956.81;3408026;82;22137;-72
2022/12/01 03:20:35;;;;;;;20.32;16.35;;;;;;;1.32;82.93;101961.14;3395267;82;21065;-71
2022/12/01 03:25:29;;;;;;;22.07;15.85;;;;;;;1.32;82.96;101957.30;3399443;82;21964;-71
2022/12/01 03:30:20;;;;;;;21.20;15.70;;;;;;;1.32;82.91;101956.02;3365415;82;21014;-71
2022/12/01 03:35:22;;;;;;;18.77;15.18;;;;;;;1.32;82.93;101954.73;3325396;82;21995;-72
2022/12/01 03:40:18;;;;;;;20.35;15.63;;;;;;;1.31;82.83;101951.29;3402414;82;20969;-72
2022/12/01 03:45:17;;;;;;;20.60;15.03;;;;;;;1.30;82.83;101953.73;3338968;82;21476;-71
2022/12/01 03:50:12;;;;;;;21.35;15.75;;;;;;;1.31;82.86;101952.97;3377277;82;21224;-73
2022/12/01 03:55:24;;;;;;;21.68;15.10;;;;;;;1.31;82.82;101946.16;3332890;82;20978;-72
2022/12/01 04:00:15;;;;;;;22.02;15.75;;;;;;;1.30;82.83;101949.89;3359231;82;21424;-72
2022/12/01 04:21:32;;;;;;;22.30;16.20;;;;;;;1.34;82.88;101941.64;2955949;94;21531;-72
2022/12/01 04:26:23;;;;;;;22.45;15.40;;;;;;;1.35;82.84;101941.27;2958775;95;21741;-72
2022/12/01 04:31:14;;;;;;;23.73;16.62;;;;;;;1.35;82.84;101944.72;2903430;95;22277;-72
2022/12/01 04:36:06;;;;;;;25.10;17.75;;;;;;;1.36;82.87;101936.27;2944356;94;21058;-72
2022/12/01 04:40:57;;;;;;;22.10;16.45;;;;;;;1.37;82.90;101938.03;2934801;95;21555;-72
2022/12/01 04:45:48;;;;;;;27.85;17.92;;;;;;;1.39;82.94;101942.88;2929388;95;21040;-71
2022/12/01 04:50:40;;;;;;;23.32;17.17;;;;;;;1.39;82.93;101946.72;2892611;95;21102;-71
2022/12/01 04:55:38;;;;;;;23.90;16.52;;;;;;;1.41;83.00;101951.56;2918395;86;21469;-72
2022/12/01 05:00:30;;;;;;;23.77;16.87;;;;;;;1.41;82.93;101952.84;3276164;84;21061;-72
2022/12/01 05:05:21;;;;;;;24.67;18.12;;;;;;;1.39;82.94;101949.28;3338730;84;20975;-72
2022/12/01 05:10:13;;;;;;;25.35;17.73;;;;;;;1.39;82.99;101951.84;3188910;85;21480;-71
2022/12/01 05:15:06;;;;;;;22.48;16.02;;;;;;;1.38;82.97;101950.08;3189780;86;21550;-72
2022/12/01 05:25:07;;;;;;;23.07;16.07;;;;;;;1.37;82.74;101953.41;3251540;85;20940;-72
2022/12/01 05:29:58;;;;;;;24.07;17.52;;;;;;;1.38;82.73;101956.85;3253117;85;21014;-72
2022/12/01 05:34:49;;;;;;;21.95;15.98;;;;;;;1.35;82.68;101954.09;3246928;84;21528;-74
2022/12/01 05:39:40;;;;;;;22.00;15.80;;;;;;;1.35;82.75;101960.09;3220471;84;21051;-75
2022/12/01 05:44:31;;;;;;;22.65;16.35;;;;;;;1.35;82.69;101956.65;3362238;82;21555;-76
2022/12/01 05:49:22;;;;;;;22.42;16.40;;;;;;;1.34;82.76;101950.61;3338502;82;21657;-75
2022/12/01 05:54:15;;;;;;;22.70;15.83;;;;;;;1.35;82.79;101950.24;3363377;82;21077;-72
2022/12/01 05:59:06;;;;;;;21.68;16.00;;;;;;;1.35;82.75;101951.53;3341941;82;21768;-72
2022/12/01 06:03:57;;;;;;;21.60;15.45;;;;;;;1.34;82.71;101957.02;3312019;82;20982;-72
2022/12/01 06:08:48;;;;;;;21.90;15.55;;;;;;;1.33;82.72;101953.97;3319743;82;21053;-72
2022/12/01 06:13:38;;;;;;;22.30;16.37;;;;;;;1.33;82.67;101960.38;3351899;82;21795;-73
2022/12/01 06:18:34;;;;;;;19.77;14.47;;;;;;;1.36;82.75;101956.77;3384541;82;20980;-72
2022/12/01 06:23:25;;;;;;;17.92;13.50;;;;;;;1.35;82.64;101955.37;3362939;82;20994;-73
2022/12/01 06:28:16;;;;;;;18.10;14.03;;;;;;;1.35;82.54;101951.13;3385170;82;21491;-73
2022/12/01 06:33:08;;;;;;;15.80;12.60;;;;;;;1.34;82.63;101951.89;3369729;82;21579;-73
2022/12/01 06:37:59;;;;;;;16.80;14.00;;;;;;;1.34;82.62;101954.45;3227492;85;21549;-72
2022/12/01 06:42:54;;;;;;;17.95;13.70;;;;;;;1.34;82.58;101955.73;3358598;83;20986;-73
2022/12/01 06:47:47;;;;;;;18.55;13.62;;;;;;;1.33;82.52;101956.53;3336588;83;20998;-72
2022/12/01 06:52:38;;;;;;;20.27;14.68;;;;;;;1.34;82.61;101954.45;3358848;83;21030;-73
2022/12/01 06:57:30;;;;;;;21.27;14.60;;;;;;;1.36;82.66;101958.05;3346658;83;20944;-73
2022/12/01 07:02:21;;;;;;;21.82;16.70;;;;;;;1.38;82.66;101957.77;3297820;83;21002;-73
2022/12/01 07:07:12;;;;;;;22.70;15.95;;;;;;;1.41;82.70;101958.37;3289796;84;21567;-72
2022/12/01 07:12:04;;;;;;;20.92;15.70;;;;;;;1.41;82.61;101955.41;3303929;83;25618;-73
2022/12/01 07:16:55;;;;;;;21.73;15.70;;;;;;;1.41;82.60;101954.12;3310621;83;20939;-73
2022/12/01 07:21:46;;;;;;;22.10;15.15;;;;;;;1.44;82.52;101951.80;3380842;83;20883;-73
2022/12/01 07:26:39;;;;;;;21.90;15.90;;;;;;;1.43;82.42;101956.81;3327683;83;21300;-73
2022/12/01 07:31:30;;;;;;;19.55;15.23;;;;;;;1.45;82.43;101954.88;3318809;84;22446;-72
2022/12/01 07:36:20;;;;;;;17.25;13.68;;;;;;;1.45;82.08;101951.03;3335759;83;21508;-73
2022/12/01 07:41:15;;;;;;;22.52;15.90;;;;;;;1.47;82.15;101955.87;3267813;84;21027;-72
2022/12/01 07:46:19;;;;;;;24.10;15.93;;;;;;;1.51;82.14;101950.19;3282453;85;21109;-72
2022/12/01 07:51:15;;;;;;;25.92;16.95;;;;;;;1.55;82.20;101950.42;3340676;82;20959;-73
2022/12/01 07:56:06;;;;;;;26.02;17.52;;;;;;;1.57;82.10;101957.43;3355712;82;21721;-73
2022/12/01 08:00:58;;;;;;;29.18;18.37;;;;;;;1.59;82.00;101953.70;3308134;83;22169;-73
2022/12/01 08:05:58;;;;;;;27.45;20.43;;;;;;;1.61;82.03;101957.27;3321508;83;21548;-73
2022/12/01 08:10:49;;;;;;;23.95;17.90;;;;;;;1.61;81.87;101958.55;3396304;83;21555;-72
2022/12/01 08:15:40;;;;;;;24.98;17.73;;;;;;;1.63;81.75;101964.70;3316176;83;21580;-72
2022/12/01 08:20:30;;;;;;;23.70;16.97;;;;;;;1.63;81.66;101965.59;3371577;83;20985;-73
2022/12/01 08:25:21;;;;;;;24.92;16.50;;;;;;;1.65;81.77;101965.70;3372019;83;21053;-73
2022/12/01 08:30:13;;;;;;;23.85;16.75;;;;;;;1.69;81.57;101960.01;3359322;83;21619;-73
2022/12/01 08:35:05;;;;;;;21.17;15.85;;;;;;;1.67;81.57;101969.27;3350286;83;21182;-72
2022/12/01 08:39:56;;;;;;;22.80;16.60;;;;;;;1.68;81.64;101968.09;3302848;83;21010;-73
2022/12/01 08:44:47;;;;;;;20.55;13.83;;;;;;;1.69;81.49;101970.27;3368876;83;20990;-72
2022/12/01 08:49:38;;;;;;;22.87;15.28;;;;;;;1.67;81.39;101971.43;3345406;83;21065;-72
2022/12/01 08:54:29;;;;;;;22.20;15.00;;;;;;;1.67;81.31;101976.95;3344830;83;21069;-72
2022/12/01 08:59:20;;;;;;;22.40;15.28;;;;;;;1.68;81.22;101974.88;3345082;83;20990;-72
2022/12/01 09:04:11;;;;;;;22.22;15.70;;;;;;;1.63;81.22;101985.22;3359226;83;20971;-72
2022/12/01 09:09:02;;;;;;;22.10;15.40;;;;;;;1.64;81.37;101980.57;3344738;83;20974;-73
2022/12/01 09:13:53;;;;;;;22.80;16.62;;;;;;;1.66;81.50;101981.57;3351179;83;21026;-72
2022/12/01 09:18:46;;;;;;;29.15;19.17;;;;;;;1.67;81.37;101979.52;3348640;83;21108;-73
2022/12/01 09:23:38;;;;;;;28.83;18.73;;;;;;;1.68;81.56;101983.85;3319699;83;21192;-72
2022/12/01 09:28:29;;;;;;;25.43;17.57;;;;;;;1.69;81.44;101977.95;3351067;83;21018;-73
2022/12/01 09:33:20;;;;;;;26.85;18.55;;;;;;;1.68;81.48;101974.88;3304494;83;20939;-73
2022/12/01 09:38:11;;;;;;;29.80;19.87;;;;;;;1.68;81.56;101973.59;3394332;83;20962;-73
2022/12/01 09:43:16;;;;;;;32.33;19.98;;;;;;;1.70;81.50;101975.51;3364320;83;20946;-73
2022/12/01 09:48:13;;;;;;;30.05;19.42;;;;;;;1.71;81.36;101976.39;3398954;83;21276;-74
2022/12/01 09:53:10;;;;;;;30.90;19.50;;;;;;;1.66;81.39;101970.03;3368572;83;21469;-73
2022/12/01 09:58:04;;;;;;;36.48;22.58;;;;;;;1.63;81.51;101963.02;3353549;83;21002;-73
2022/12/01 10:03:04;;;;;;;37.45;20.62;;;;;;;1.63;81.72;101964.70;3358786;83;21500;-73
2022/12/01 10:08:00;;;;;;;37.70;24.30;;;;;;;1.65;81.72;101956.33;3332299;83;20982;-74
2022/12/01 10:12:51;;;;;;;42.98;24.07;;;;;;;1.62;81.58;101956.50;3349849;83;23383;-73
2022/12/01 10:18:05;;;;;;;43.75;23.90;;;;;;;1.59;81.68;101956.27;3335694;83;21010;-72
2022/12/01 10:23:13;;;;;;;42.70;24.57;;;;;;;1.60;81.71;101953.81;3319024;83;21457;-73
2022/12/01 10:28:25;;;;;;;45.50;25.23;;;;;;;1.66;81.63;101950.44;3373281;83;21026;-73
2022/12/01 10:33:26;;;;;;;43.00;25.00;;;;;;;1.67;81.50;101950.03;3294428;84;20976;-73
2022/12/01 10:38:32;;;;;;;39.10;23.10;;;;;;;1.68;81.49;101943.74;3385269;82;21048;-73
2022/12/01 10:43:38;;;;;;;42.98;24.90;;;;;;;1.67;81.40;101939.38;3362188;83;21546;-73
2022/12/01 10:48:29;;;;;;;37.90;24.83;;;;;;;1.67;81.54;101935.94;3232625;85;20947;-73
2022/12/01 10:53:31;;;;;;;45.52;25.48;;;;;;;1.71;81.38;101932.80;3330077;83;20990;-73
2022/12/01 10:58:22;;;;;;;46.40;24.90;;;;;;;1.72;81.28;101929.47;3279751;85;21449;-73
2022/12/01 11:03:21;;;;;;;42.48;25.82;;;;;;;1.70;81.27;101933.20;3338288;84;21515;-73
2022/12/01 11:08:26;;;;;;;42.58;25.12;;;;;;;1.75;81.40;101919.41;3374449;82;20998;-73
2022/12/01 11:13:28;;;;;;;50.43;27.35;;;;;;;1.71;81.14;101916.13;3332617;82;20998;-74
2022/12/01 11:18:36;;;;;;;46.70;28.23;;;;;;;1.71;81.28;101918.70;3342834;82;21141;-72
2022/12/01 11:23:28;;;;;;;52.73;31.02;;;;;;;1.69;81.18;101916.42;3392205;82;21272;-72
2022/12/01 11:28:20;;;;;;;45.65;24.98;;;;;;;1.64;81.13;101913.51;3350188;82;21433;-74
2022/12/01 11:33:14;;;;;;;48.87;25.70;;;;;;;1.58;81.20;101918.61;3385542;82;21045;-73
2022/12/01 11:38:08;;;;;;;54.13;28.55;;;;;;;1.55;81.38;101914.53;3403622;83;20993;-72
2022/12/01 11:43:05;;;;;;;49.30;28.15;;;;;;;1.51;81.50;101913.02;3380728;82;21472;-74
2022/12/01 11:48:08;;;;;;;47.83;25.15;;;;;;;1.46;81.49;101907.94;3353229;83;21197;-74
2022/12/01 11:53:00;;;;;;;43.02;25.80;;;;;;;1.39;81.68;101906.99;3245289;85;22134;-75
2022/12/01 11:57:56;;;;;;;38.25;22.45;;;;;;;1.38;81.92;101908.16;3291159;82;20926;-73
2022/12/01 12:03:21;;;;;;;42.27;24.12;;;;;;;1.35;81.81;101911.41;3430895;82;20926;-72
2022/12/01 12:08:24;;;;;;;34.70;19.40;;;;;;;1.35;81.75;101903.72;3396867;82;21377;-73
2022/12/01 12:13:25;;;;;;;30.57;17.45;;;;;;;1.35;81.54;101911.41;3411073;82;20945;-73
2022/12/01 12:18:50;;;;;;;25.00;15.53;;;;;;;1.32;81.37;101912.09;3423871;82;21404;-73
2022/12/01 12:24:17;;;;;;;22.37;14.25;;;;;;;1.32;81.34;101913.73;3425187;82;21500;-74
2022/12/01 12:29:28;;;;;;;23.47;13.83;;;;;;;1.33;81.22;101918.98;3419102;82;20930;-73
2022/12/01 12:34:25;;;;;;;22.32;12.68;;;;;;;1.31;80.96;101914.53;3406477;82;20973;-73
2022/12/01 12:39:33;;;;;;;18.53;12.33;;;;;;;1.31;80.89;101914.53;3406006;82;20910;-74
2022/12/01 12:45:00;;;;;;;15.05;10.48;;;;;;;1.29;80.81;101910.97;3412927;82;21733;-72
2022/12/01 12:50:09;;;;;;;14.15;9.63;;;;;;;1.31;80.69;101908.13;3321574;83;20962;-72
2022/12/01 12:55:24;;;;;;;12.88;9.18;;;;;;;1.31;80.69;101904.28;3294027;84;21076;-71
2022/12/01 13:00:21;;;;;;;13.88;8.33;;;;;;;1.28;80.51;101906.61;3321213;83;20998;-75
2022/12/01 13:05:23;;;;;;;12.30;7.87;;;;;;;1.30;80.71;101907.61;3318366;83;20942;-74
2022/12/01 13:10:29;;;;;;;13.05;8.88;;;;;;;1.25;80.11;101897.41;3320829;83;21381;-73
2022/12/01 13:15:21;;;;;;;11.85;8.13;;;;;;;1.14;79.99;101891.13;3164649;89;20936;-73
2022/12/01 13:20:18;;;;;;;13.03;8.33;;;;;;;1.13;80.10;101894.45;3116412;89;20991;-75
2022/12/01 13:25:12;;;;;;;;;;;;;;;1.04;79.25;101887.37;3190245;88;21579;-72
2022/12/01 13:30:08;;;;;;;18.17;11.88;;;;;;;0.99;79.17;101888.70;3173894;89;20436;-73
2022/12/01 13:35:05;;;;;;;13.13;8.55;;;;;;;0.95;79.04;101891.82;3189253;88;22077;-73
2022/12/01 13:40:26;;;;;;;10.13;7.87;;;;;;;0.89;78.79;101897.75;3126527;89;27470;-75
2022/12/01 13:45:19;;;;;;;9.68;7.42;;;;;;;0.84;78.71;101894.86;3169056;89;21002;-73
2022/12/01 13:50:38;;;;;;;11.50;7.80;;;;;;;0.76;78.13;101895.54;3175140;84;20968;-74
2022/12/01 13:55:30;;;;;;;10.70;8.08;;;;;;;0.72;78.26;101902.89;3367769;82;20936;-74
2022/12/01 14:00:28;;;;;;;12.20;7.92;;;;;;;0.70;78.24;101904.05;3350988;82;21583;-74
2022/12/01 14:05:40;;;;;;;12.28;8.05;;;;;;;0.69;78.09;101905.21;3373301;82;20993;-72
2022/12/01 14:10:32;;;;;;;37.28;17.23;;;;;;;0.62;77.88;101902.97;3410933;82;20954;-72
2022/12/01 14:15:39;;;;;;;14.80;10.30;;;;;;;0.61;78.03;101900.80;3341103;82;20962;-72
2022/12/01 14:20:34;;;;;;;13.32;10.05;;;;;;;0.62;77.97;101909.36;3379750;82;20990;-73
2022/12/01 14:25:29;;;;;;;14.55;10.55;;;;;;;0.62;77.90;101912.80;3366689;81;21128;-72
2022/12/01 14:30:46;;;;;;;13.78;10.03;;;;;;;0.53;77.41;101912.11;3398193;82;21547;-71
2022/12/01 14:35:37;;;;;;;17.23;11.18;;;;;;;0.45;77.09;101902.94;3350300;82;21129;-72
2022/12/01 14:40:29;;;;;;;19.57;12.40;;;;;;;0.35;77.13;101912.47;3345678;83;20958;-72
2022/12/01 14:45:35;;;;;;;15.78;12.53;;;;;;;0.30;77.23;101904.82;3333153;83;20920;-72
2022/12/01 14:50:52;;;;;;;19.85;12.37;;;;;;;0.27;76.98;101902.05;3343382;83;21066;-72
2022/12/01 14:55:57;;;;;;;14.68;11.35;;;;;;;0.25;77.13;101904.88;3378436;83;21035;-74
2022/12/01 15:01:08;;;;;;;20.77;13.55;;;;;;;0.23;77.17;101898.73;3381166;83;20987;-73
2022/12/01 15:05:59;;;;;;;16.65;13.13;;;;;;;0.26;77.39;101896.41;3325410;83;20982;-73
2022/12/01 15:10:55;;;;;;;21.75;14.75;;;;;;;0.27;77.14;101892.19;3319712;83;20932;-73
2022/12/01 15:15:57;;;;;;;21.27;14.35;;;;;;;0.27;77.18;101890.91;3333122;83;21619;-72
2022/12/01 15:20:52;;;;;;;19.62;15.58;;;;;;;0.28;77.19;101893.59;3326770;83;20971;-72
2022/12/01 15:25:45;;;;;;;21.57;14.50;;;;;;;0.28;77.18;101894.86;3340466;83;21488;-72
2022/12/01 15:30:38;;;;;;;23.25;17.50;;;;;;;0.26;77.18;101898.98;3353579;83;21057;-72
2022/12/01 15:35:30;;;;;;;26.73;17.48;;;;;;;0.22;77.05;101902.08;3343955;83;21006;-72
2022/12/01 15:40:22;;;;;;;28.67;18.75;;;;;;;0.16;76.89;101896.47;3400381;82;21124;-72
2022/12/01 15:45:20;;;;;;;24.90;16.93;;;;;;;0.10;76.64;101902.00;3357225;82;20999;-72
2022/12/01 15:50:35;;;;;;;25.27;17.02;;;;;;;0.02;76.73;101907.28;3385524;82;20906;-72
2022/12/01 15:55:30;;;;;;;24.05;17.02;;;;;;;-0.02;76.61;101907.43;3364066;82;20970;-72
2022/12/01 16:00:23;;;;;;;30.12;18.37;;;;;;;-0.08;76.64;101910.41;3438884;81;20951;-72
2022/12/01 16:05:18;;;;;;;25.55;17.85;;;;;;;-0.06;76.71;101907.58;3438458;82;21475;-72
2022/12/01 16:10:29;;;;;;;21.60;16.17;;;;;;;-0.08;76.51;101914.23;3430447;82;21083;-71
2022/12/01 16:15:21;;;;;;;25.30;17.02;;;;;;;-0.10;76.75;101914.51;3399013;82;20952;-72
2022/12/01 16:20:23;;;;;;;25.08;16.48;;;;;;;-0.14;76.28;101918.88;3381643;82;20941;-73
2022/12/01 16:25:20;;;;;;;24.18;16.20;;;;;;;-0.16;76.29;101935.77;3394935;82;21539;-73
2022/12/01 16:30:25;;;;;;;22.97;15.33;;;;;;;-0.18;76.13;101928.33;3373109;82;21078;-71
2022/12/01 16:35:32;;;;;;;20.40;14.05;;;;;;;-0.21;76.25;101926.83;3434723;82;21443;-71
2022/12/01 16:40:24;;;;;;;23.83;14.60;;;;;;;-0.18;76.11;101933.84;3376768;82;20969;-71
2022/12/01 16:45:17;;;;;;;25.65;17.05;;;;;;;-0.19;76.22;101930.41;3329086;84;21098;-72
2022/12/01 16:50:13;;;;;;;24.82;17.48;;;;;;;-0.18;76.03;101925.78;3329139;84;21057;-71
2022/12/01 16:55:26;;;;;;;25.48;17.80;;;;;;;-0.23;75.83;101927.10;3313472;84;21370;-71
2022/12/01 17:00:18;;;;;;;24.40;15.72;;;;;;;-0.26;75.78;101926.45;3331347;84;21007;-71
2022/12/01 17:05:11;;;;;;;27.10;17.48;;;;;;;-0.28;75.77;101924.16;3339440;84;20991;-71
2022/12/01 17:10:04;;;;;;;27.13;19.00;;;;;;;-0.33;75.64;101921.63;3324303;84;21053;-71
2022/12/01 17:14:55;;;;;;;27.02;16.77;;;;;;;-0.36;75.67;101917.92;3303807;84;21001;-71
2022/12/01 17:19:46;;;;;;;27.67;17.80;;;;;;;-0.39;75.59;101921.14;3346341;84;20999;-70
2022/12/01 17:24:37;;;;;;;26.40;18.45;;;;;;;-0.39;75.77;101915.64;3286912;84;21541;-71
2022/12/01 17:29:28;;;;;;;27.82;17.85;;;;;;;-0.39;75.57;101909.25;3321743;84;21018;-71
2022/12/01 17:34:19;;;;;;;29.25;19.57;;;;;;;-0.45;75.46;101909.13;3262299;84;21030;-71
2022/12/01 17:39:10;;;;;;;27.45;19.32;;;;;;;-0.45;75.69;101913.88;3314076;84;20947;-71
2022/12/01 17:44:04;;;;;;;26.25;15.68;;;;;;;-0.42;75.70;101903.00;3375935;83;21696;-71
2022/12/01 17:48:56;;;;;;;34.58;21.40;;;;;;;-0.45;75.73;101908.77;3336547;83;21009;-71
2022/12/01 17:53:47;;;;;;;29.98;19.42;;;;;;;-0.46;75.72;101913.75;3343004;83;21001;-70
2022/12/01 17:58:38;;;;;;;33.80;22.55;;;;;;;-0.49;75.73;101910.55;3345202;83;21017;-70
2022/12/01 18:03:29;;;;;;;30.02;20.48;;;;;;;-0.47;75.72;101907.73;3350964;83;20951;-70
2022/12/01 18:08:21;;;;;;;27.90;18.95;;;;;;;-0.50;75.68;101912.62;3338141;83;21778;-70
2022/12/01 18:13:12;;;;;;;30.52;20.32;;;;;;;-0.52;75.62;101910.33;3350125;83;20955;-71
2022/12/01 18:18:03;;;;;;;26.90;18.27;;;;;;;-0.58;75.63;101904.70;3369455;83;20979;-71
2022/12/01 18:22:54;;;;;;;26.20;19.00;;;;;;;-0.61;75.68;101901.53;3340044;83;21689;-70
2022/12/01 18:27:45;;;;;;;25.40;17.82;;;;;;;-0.63;75.91;101903.05;3321801;83;27173;-70
2022/12/01 18:32:36;;;;;;;25.97;17.87;;;;;;;-0.63;75.68;101902.16;3368381;83;21511;-71
2022/12/01 18:37:27;;;;;;;21.82;15.72;;;;;;;-0.63;75.95;101902.16;3353663;83;21028;-70
2022/12/01 18:42:18;;;;;;;20.43;13.72;;;;;;;-0.60;75.81;101904.97;3377862;82;20932;-71
2022/12/01 18:47:09;;;;;;;15.68;11.63;;;;;;;-0.58;75.73;101911.97;3395702;82;20939;-71
2022/12/01 18:52:02;;;;;;;20.48;12.18;;;;;;;-0.60;75.53;101904.97;3361144;82;20986;-71
2022/12/01 18:56:55;;;;;;;20.02;13.13;;;;;;;-0.62;75.44;101895.02;3409674;82;22069;-71
2022/12/01 19:01:47;;;;;;;25.62;16.73;;;;;;;-0.64;75.44;101905.50;3381207;82;20968;-71
2022/12/01 19:06:40;;;;;;;24.85;16.02;;;;;;;-0.70;75.33;101904.59;3354006;82;38009;-71
2022/12/01 19:11:32;;;;;;;24.60;16.55;;;;;;;-0.68;75.52;101903.44;3401664;82;21540;-70
2022/12/01 19:16:24;;;;;;;20.40;13.98;;;;;;;-0.68;75.50;101907.27;3376266;82;20982;-71
2022/12/01 19:21:18;;;;;;;23.73;16.37;;;;;;;-0.68;75.36;101917.49;3385171;82;21431;-71
2022/12/01 19:26:13;;;;;;;24.75;16.17;;;;;;;-0.70;75.44;101910.98;3414704;82;20907;-71
2022/12/01 19:31:10;;;;;;;29.00;17.73;;;;;;;-0.69;75.44;101909.34;3393935;82;20981;-71
2022/12/01 19:36:09;;;;;;;28.80;18.92;;;;;;;-0.69;75.24;101909.34;3386669;82;20995;-71
2022/12/01 19:41:01;;;;;;;30.32;19.57;;;;;;;-0.71;75.38;101910.88;3384691;82;20950;-71
2022/12/01 19:45:52;;;;;;;27.40;17.70;;;;;;;-0.68;75.50;101914.94;3374749;82;21106;-71
2022/12/01 19:50:43;;;;;;;32.42;20.30;;;;;;;-0.69;75.36;101914.45;3379719;82;21535;-72
2022/12/01 19:55:36;;;;;;;29.15;19.80;;;;;;;-0.70;75.41;101907.54;3382143;82;21475;-73
2022/12/01 20:00:27;;;;;;;30.50;18.17;;;;;;;-0.70;75.41;101911.37;3391979;82;21053;-71
2022/12/01 20:05:18;;;;;;;31.90;19.30;;;;;;;-0.74;75.29;101908.06;3388826;82;20907;-71
2022/12/01 20:10:10;;;;;;;32.58;20.23;;;;;;;-0.73;75.66;101907.28;3363346;82;20998;-72
2022/12/01 20:15:06;;;;;;;30.60;20.88;;;;;;;-0.69;75.80;101910.22;3374803;81;20976;-72
2022/12/01 20:19:55;;;;;;;29.57;20.68;;;;;;;-0.67;75.62;101908.68;3379691;82;21038;-71
2022/12/01 20:24:46;;;;;;;27.85;18.37;;;;;;;-0.69;75.51;101904.23;3376405;82;21001;-71
2022/12/01 20:29:37;;;;;;;30.37;20.27;;;;;;;-0.68;75.63;101901.80;3382528;82;20970;-72
2022/12/01 20:34:32;;;;;;;30.08;19.90;;;;;;;-0.67;75.73;101902.69;3401667;82;21126;-72
2022/12/01 20:39:24;;;;;;;26.20;18.67;;;;;;;-0.66;75.73;101901.91;3394485;81;21044;-72
2022/12/01 20:44:16;;;;;;;28.42;18.70;;;;;;;-0.66;75.61;101907.02;3366024;81;20966;-72
2022/12/01 20:49:07;;;;;;;25.75;17.52;;;;;;;-0.67;75.56;101901.41;3362212;82;20978;-72
2022/12/01 20:54:02;;;;;;;24.87;16.87;;;;;;;-0.70;75.56;101897.33;3387110;82;20966;-72
2022/12/01 20:58:53;;;;;;;25.75;17.25;;;;;;;-0.70;75.56;101896.05;3380813;81;22056;-72
2022/12/01 21:03:45;;;;;;;30.50;19.02;;;;;;;-0.72;75.59;101903.97;3366125;82;21070;-72
2022/12/01 21:08:39;;;;;;;28.52;18.82;;;;;;;-0.73;75.58;101902.17;3357822;82;20994;-72
2022/12/01 21:13:38;;;;;;;26.50;16.32;;;;;;;-0.76;75.49;101902.83;3363613;82;21527;-70
2022/12/01 21:19:00;;;;;;;25.55;16.97;;;;;;;-0.81;75.34;101904.11;3370425;82;21002;-72
2022/12/01 21:24:15;;;;;;;24.43;15.13;;;;;;;-0.86;75.35;101907.59;3380720;81;21614;-71
2022/12/01 21:29:25;;;;;;;20.75;13.50;;;;;;;-0.88;75.22;101901.83;3380021;82;21038;-71
2022/12/01 21:34:24;;;;;;;23.47;15.88;;;;;;;-0.96;75.28;101899.92;3422795;81;21016;-72
2022/12/01 21:39:22;;;;;;;24.63;16.05;;;;;;;-0.96;75.24;101899.53;3350564;82;21535;-73
2022/12/01 21:45:10;;;;;;;24.75;14.73;;;;;;;-0.98;75.36;101896.36;3349025;83;21006;-73
2022/12/01 21:50:08;;;;;;;24.15;14.95;;;;;;;-1.03;75.37;101898.52;3271466;86;21271;-73
2022/12/01 21:55:19;;;;;;;23.25;15.30;;;;;;;-1.02;75.36;101898.13;3260833;86;21111;-72
2022/12/01 22:00:35;;;;;;;23.98;14.25;;;;;;;-1.02;75.63;101892.66;3290533;85;21015;-72
2022/12/01 22:06:00;;;;;;;24.00;15.63;;;;;;;-0.99;75.64;101886.91;3279216;86;20999;-72
2022/12/01 22:11:14;;;;;;;22.87;14.73;;;;;;;-1.00;75.49;101887.69;3270668;86;21091;-72
2022/12/01 22:16:12;;;;;;;24.12;16.70;;;;;;;-1.01;75.60;101890.99;3266386;86;21232;-72
2022/12/01 22:21:32;;;;;;;22.35;15.00;;;;;;;-1.03;75.57;101889.98;3300664;84;21010;-71
2022/12/01 22:26:24;;;;;;;23.40;14.85;;;;;;;-1.03;75.50;101893.81;3294586;84;21593;-71
2022/12/01 22:31:18;;;;;;;23.30;14.68;;;;;;;-1.09;75.43;101898.39;3305883;83;21075;-72
2022/12/01 22:36:25;;;;;;;22.45;15.38;;;;;;;-1.11;75.43;101889.72;3351964;83;21536;-72
2022/12/01 22:41:19;;;;;;;21.37;15.37;;;;;;;-1.11;75.41;101888.44;3367531;83;21215;-72
2022/12/01 22:46:32;;;;;;;24.65;14.93;;;;;;;-1.15;75.28;101879.25;3372990;82;21019;-71
2022/12/01 22:51:40;;;;;;;21.68;14.05;;;;;;;-1.17;75.21;101878.63;3380828;83;20940;-72
2022/12/01 22:56:44;;;;;;;21.40;13.75;;;;;;;-1.22;75.05;101874.40;3386248;83;20988;-71
2022/12/01 23:01:55;;;;;;;21.70;14.68;;;;;;;-1.23;75.21;101866.25;3386773;83;21044;-72